createdAt,value
2018-04-07T00:00:22.337Z,59.87
2018-04-07T00:02:49.701Z,60.36
2018-04-07T00:05:17.049Z,60.72
2018-04-07T00:07:44.369Z,60.83
2018-04-07T00:10:14.354Z,60.74
2018-04-07T00:12:41.674Z,60.69
2018-04-07T00:15:09.011Z,61.00
2018-04-07T00:17:36.390Z,61.07
2018-04-07T00:20:07.169Z,60.74
2018-04-07T00:22:34.522Z,60.89
2018-04-07T00:25:01.919Z,61.17
2018-04-07T00:27:29.249Z,61.11
2018-04-07T00:29:56.601Z,61.27
2018-04-07T00:32:23.800Z,61.05
2018-04-07T00:34:51.114Z,60.82
2018-04-07T00:37:18.431Z,60.98
2018-04-07T00:39:45.791Z,61.55
2018-04-07T00:42:14.686Z,62.11
2018-04-07T00:44:41.999Z,62.02
2018-04-07T00:47:09.336Z,61.76
2018-04-07T00:49:36.715Z,61.69
2018-04-07T00:52:04.029Z,61.89
2018-04-07T00:54:31.324Z,62.39
2018-04-07T00:57:02.105Z,62.39
2018-04-07T00:59:30.131Z,62.70
2018-04-07T01:01:57.333Z,63.25
2018-04-07T01:04:28.085Z,63.31
2018-04-07T01:06:55.521Z,62.94
2018-04-07T01:09:22.785Z,62.81
2018-04-07T01:11:54.669Z,63.46
2018-04-07T01:14:22.026Z,63.15
2018-04-07T01:16:49.374Z,63.60
2018-04-07T01:19:20.097Z,63.96
2018-04-07T01:21:47.542Z,64.21
2018-04-07T01:24:19.560Z,63.61
2018-04-07T01:26:46.893Z,64.22
2018-04-07T01:29:17.441Z,64.50
2018-04-07T01:31:45.854Z,64.45
2018-04-07T01:34:13.167Z,64.85
2018-04-07T01:36:43.130Z,64.87
2018-04-07T01:39:10.546Z,65.11
2018-04-07T01:41:43.297Z,66.20
2018-04-07T01:44:10.618Z,66.28
2018-04-07T01:46:40.956Z,65.61
2018-04-07T01:49:08.274Z,66.28
2018-04-07T01:51:38.927Z,66.37
2018-04-07T01:54:06.402Z,66.69
2018-04-07T01:56:37.058Z,66.89
2018-04-07T01:59:04.429Z,66.99
2018-04-07T02:01:33.113Z,67.02
2018-04-07T02:04:00.406Z,66.84
2018-04-07T02:06:28.824Z,66.69
2018-04-07T02:08:56.204Z,67.08
2018-04-07T02:11:23.775Z,66.77
2018-04-07T02:13:52.177Z,66.86
2018-04-07T02:16:19.495Z,66.97
2018-04-07T02:18:49.421Z,66.66
2018-04-07T02:21:16.756Z,66.90
2018-04-07T02:23:46.775Z,66.95
2018-04-07T02:26:14.283Z,66.83
2018-04-07T02:28:44.199Z,66.48
2018-04-07T02:31:11.511Z,66.67
2018-04-07T02:33:42.778Z,67.01
2018-04-07T02:36:10.083Z,67.37
2018-04-07T02:38:42.009Z,67.48
2018-04-07T02:41:09.896Z,67.95
2018-04-07T02:43:39.860Z,67.74
2018-04-07T02:46:08.285Z,67.76
2018-04-07T02:48:35.630Z,68.46
2018-04-07T02:51:07.742Z,68.33
2018-04-07T02:53:36.130Z,68.16
2018-04-07T02:56:04.625Z,66.58
2018-04-07T02:58:32.680Z,68.03
2018-04-07T03:01:03.209Z,68.09
2018-04-07T03:03:31.620Z,69.06
2018-04-07T03:06:02.509Z,69.12
2018-04-07T03:08:30.918Z,69.08
2018-04-07T03:10:59.348Z,69.46
2018-04-07T03:13:29.977Z,69.24
2018-04-07T03:15:58.438Z,69.55
2018-04-07T03:18:26.853Z,69.80
2018-04-07T03:20:55.267Z,69.70
2018-04-07T03:23:23.725Z,70.60
2018-04-07T03:25:52.133Z,70.89
2018-04-07T03:28:22.645Z,71.01
2018-04-07T03:30:51.418Z,71.55
2018-04-07T03:33:19.829Z,70.84
2018-04-07T03:35:50.604Z,70.42
2018-04-07T03:38:19.012Z,70.03
2018-04-07T03:40:47.429Z,70.33
2018-04-07T03:43:17.990Z,69.72
2018-04-07T03:45:46.444Z,70.11
2018-04-07T03:48:14.889Z,70.37
2018-04-07T03:50:43.338Z,70.83
2018-04-07T03:53:11.753Z,70.52
2018-04-07T03:55:40.162Z,70.61
2018-04-07T03:58:08.590Z,70.99
2018-04-07T04:00:39.054Z,70.76
2018-04-07T04:03:09.285Z,70.81
2018-04-07T04:05:40.751Z,71.03
2018-04-07T04:08:09.182Z,71.33
2018-04-07T04:10:37.600Z,71.24
2018-04-07T04:13:06.014Z,70.72
2018-04-07T04:15:36.234Z,70.85
2018-04-07T04:18:06.753Z,70.48
2018-04-07T04:20:35.176Z,70.60
2018-04-07T04:23:03.597Z,70.50
2018-04-07T04:25:32.017Z,70.62
2018-04-07T04:28:00.413Z,71.05
2018-04-07T04:30:28.840Z,72.01
2018-04-07T04:32:59.370Z,71.36
2018-04-07T04:35:30.721Z,71.54
2018-04-07T04:37:59.140Z,72.49
2018-04-07T04:40:29.113Z,71.81
2018-04-07T04:42:57.517Z,72.00
2018-04-07T04:45:27.629Z,72.16
2018-04-07T04:48:00.300Z,72.15
2018-04-07T04:50:28.718Z,72.10
2018-04-07T04:52:57.109Z,72.23
2018-04-07T04:55:25.528Z,71.97
2018-04-07T04:57:53.929Z,72.36
2018-04-07T05:00:22.348Z,72.50
2018-04-07T05:02:52.838Z,72.64
2018-04-07T05:05:23.225Z,72.18
2018-04-07T05:07:51.654Z,72.88
2018-04-07T05:10:24.057Z,73.09
2018-04-07T05:12:54.545Z,73.20
2018-04-07T05:15:27.080Z,72.92
2018-04-07T05:17:57.280Z,72.69
2018-04-07T05:20:28.324Z,73.26
2018-04-07T05:22:56.784Z,73.24
2018-04-07T05:25:25.202Z,72.83
2018-04-07T05:27:53.617Z,71.50
2018-04-07T05:30:23.680Z,70.11
2018-04-07T05:32:52.138Z,69.25
2018-04-07T05:35:21.841Z,68.14
2018-04-07T05:37:50.279Z,66.87
2018-04-07T05:40:18.721Z,65.91
2018-04-07T05:42:47.135Z,66.01
2018-04-07T05:45:17.786Z,65.85
2018-04-07T05:47:46.214Z,64.89
2018-04-07T05:50:15.799Z,64.78
2018-04-07T05:52:45.670Z,64.31
2018-04-07T05:55:14.096Z,63.79
2018-04-07T05:57:43.794Z,62.80
2018-04-07T06:00:12.434Z,61.66
2018-04-07T06:02:41.180Z,61.32
2018-04-07T06:05:09.590Z,60.68
2018-04-07T06:07:38.124Z,59.49
2018-04-07T06:10:06.697Z,57.33
2018-04-07T06:12:35.138Z,55.16
2018-04-07T06:15:03.558Z,54.35
2018-04-07T06:17:33.230Z,54.93
2018-04-07T06:20:01.612Z,53.11
2018-04-07T06:22:30.380Z,52.78
2018-04-07T06:24:58.758Z,52.16
2018-04-07T06:27:27.777Z,52.07
2018-04-07T06:29:56.202Z,52.29
2018-04-07T06:32:24.633Z,52.12
2018-04-07T06:34:53.048Z,52.08
2018-04-07T06:37:20.420Z,51.70
2018-04-07T06:39:50.105Z,51.05
2018-04-07T06:42:18.533Z,50.63
2018-04-07T06:44:46.938Z,50.06
2018-04-07T06:47:15.354Z,49.73
2018-04-07T06:49:42.650Z,49.66
2018-04-07T06:52:13.355Z,49.07
2018-04-07T06:54:41.777Z,49.16
2018-04-07T06:57:11.124Z,49.30
2018-04-07T06:59:40.455Z,48.49
2018-04-07T07:02:09.944Z,46.86
2018-04-07T07:04:38.370Z,46.34
2018-04-07T07:07:06.829Z,45.25
2018-04-07T07:09:34.193Z,43.45
2018-04-07T07:12:02.628Z,42.26
2018-04-07T07:14:31.056Z,41.45
2018-04-07T07:17:00.514Z,40.62
2018-04-07T07:19:28.948Z,39.44
2018-04-07T07:21:56.271Z,37.48
2018-04-07T07:24:27.253Z,37.45
2018-04-07T07:26:55.697Z,34.77
2018-04-07T07:29:24.122Z,33.59
2018-04-07T07:31:53.035Z,33.41
2018-04-07T07:34:21.439Z,31.89
2018-04-07T07:36:49.888Z,32.37
2018-04-07T07:39:17.205Z,30.19
2018-04-07T07:41:45.824Z,29.33
2018-04-07T07:44:15.377Z,27.86
2018-04-07T07:46:43.783Z,26.56
2018-04-07T07:49:12.249Z,27.00
2018-04-07T07:51:40.688Z,25.65
2018-04-07T07:54:09.112Z,24.98
2018-04-07T07:56:36.457Z,24.62
2018-04-07T07:59:04.906Z,24.13
2018-04-07T08:01:33.393Z,23.35
2018-04-07T08:04:02.835Z,22.31
2018-04-07T08:06:32.259Z,21.49
2018-04-07T08:09:02.167Z,20.49
2018-04-07T08:11:30.637Z,20.54
2018-04-07T08:14:01.050Z,22.39
2018-04-07T08:16:29.479Z,21.09
2018-04-07T08:18:58.170Z,21.26
2018-04-07T08:21:27.592Z,20.17
2018-04-07T08:23:56.692Z,18.70
2018-04-07T08:26:24.074Z,19.34
2018-04-07T08:28:52.433Z,18.02
2018-04-07T08:31:20.896Z,18.31
2018-04-07T08:33:50.310Z,17.82
2018-04-07T08:36:20.257Z,17.85
2018-04-07T08:38:48.713Z,18.76
2018-04-07T08:41:17.135Z,19.03
2018-04-07T08:43:50.118Z,19.03
2018-04-07T08:46:18.484Z,18.23
2018-04-07T08:48:48.328Z,18.30
2018-04-07T08:51:19.225Z,18.60
2018-04-07T08:53:50.093Z,17.97
2018-04-07T08:56:18.516Z,17.11
2018-04-07T08:58:46.982Z,16.17
2018-04-07T09:01:15.336Z,15.87
2018-04-07T09:03:43.837Z,16.14
2018-04-07T09:06:12.260Z,16.71
2018-04-07T09:08:40.737Z,15.45
2018-04-07T09:11:08.058Z,14.84
2018-04-07T09:13:38.104Z,14.91
2018-04-07T09:16:06.538Z,15.47
2018-04-07T09:18:34.972Z,14.03
2018-04-07T09:21:02.311Z,14.82
2018-04-07T09:23:31.739Z,14.07
2018-04-07T09:25:59.018Z,14.30
2018-04-07T09:28:28.717Z,14.16
2018-04-07T09:31:02.063Z,13.00
2018-04-07T09:33:30.529Z,12.79
2018-04-07T09:35:57.847Z,13.07
2018-04-07T09:38:25.194Z,14.22
2018-04-07T09:40:53.594Z,13.72
2018-04-07T09:43:20.903Z,13.02
2018-04-07T09:45:48.246Z,12.17
2018-04-07T09:48:18.660Z,12.64
2018-04-07T09:50:46.070Z,12.65
2018-04-07T09:53:13.358Z,12.40
2018-04-07T09:55:41.833Z,12.72
2018-04-07T09:58:09.153Z,12.12
2018-04-07T10:00:37.649Z,11.82
2018-04-07T10:03:04.940Z,11.44
2018-04-07T10:05:32.555Z,12.23
2018-04-07T10:08:00.962Z,12.03
2018-04-07T10:10:29.017Z,11.95
2018-04-07T10:12:57.464Z,12.30
2018-04-07T10:15:24.759Z,12.10
2018-04-07T10:17:52.805Z,11.63
2018-04-07T10:20:20.224Z,10.77
2018-04-07T10:22:47.579Z,10.47
2018-04-07T10:25:16.021Z,10.29
2018-04-07T10:27:44.099Z,10.90
2018-04-07T10:30:13.729Z,9.71
2018-04-07T10:32:44.599Z,10.46
2018-04-07T10:35:11.941Z,11.11
2018-04-07T10:37:39.282Z,10.86
2018-04-07T10:40:06.607Z,10.24
2018-04-07T10:42:36.082Z,10.10
2018-04-07T10:45:03.428Z,11.29
2018-04-07T10:47:32.699Z,11.98
2018-04-07T10:49:59.983Z,11.74
2018-04-07T10:52:29.713Z,12.05
2018-04-07T10:54:57.801Z,11.03
2018-04-07T10:57:26.223Z,11.28
2018-04-07T10:59:53.588Z,10.22
2018-04-07T11:05:10.130Z,10.52
2018-04-07T11:07:37.417Z,11.37
2018-04-07T11:10:05.849Z,13.01
2018-04-07T11:12:33.182Z,12.35
2018-04-07T11:15:00.549Z,12.52
2018-04-07T11:17:28.097Z,12.08
2018-04-07T11:19:55.434Z,11.85
2018-04-07T11:22:22.759Z,12.64
2018-04-07T11:24:50.085Z,12.57
2018-04-07T11:27:18.077Z,12.71
2018-04-07T11:29:45.454Z,13.04
2018-04-07T11:32:13.867Z,13.42
2018-04-07T11:34:41.216Z,13.25
2018-04-07T11:37:09.692Z,13.29
2018-04-07T11:39:37.026Z,13.34
2018-04-07T11:42:04.339Z,13.67
2018-04-07T11:44:31.727Z,14.04
2018-04-07T11:46:59.122Z,14.98
2018-04-07T11:49:27.578Z,14.74
2018-04-07T11:51:54.894Z,15.31
2018-04-07T11:54:22.270Z,14.94
2018-04-07T11:56:49.594Z,14.94
2018-04-07T11:59:18.081Z,14.26
2018-04-07T12:01:45.493Z,15.22
2018-04-07T12:04:13.901Z,14.41
2018-04-07T12:06:42.333Z,14.77
2018-04-07T12:09:09.658Z,14.59
2018-04-07T12:11:37.023Z,13.84
2018-04-07T12:14:04.336Z,14.51
2018-04-07T12:16:31.699Z,14.96
2018-04-07T12:19:00.122Z,14.48
2018-04-07T12:21:27.474Z,14.16
2018-04-07T12:23:55.884Z,14.41
2018-04-07T12:26:24.308Z,13.54
2018-04-07T12:28:51.622Z,10.55
2018-04-07T12:31:20.037Z,12.92
2018-04-07T12:33:48.099Z,11.64
2018-04-07T12:36:16.560Z,10.34
2018-04-07T12:38:43.842Z,11.93
2018-04-07T12:41:12.589Z,12.00
2018-04-07T12:43:40.646Z,13.31
2018-04-07T12:46:09.959Z,13.99
2018-04-07T12:48:37.353Z,13.76
2018-04-07T12:51:05.837Z,13.56
2018-04-07T12:53:33.962Z,12.35
2018-04-07T12:56:02.458Z,13.36
2018-04-07T12:58:29.843Z,12.58
2018-04-07T13:00:58.268Z,13.01
2018-04-07T13:03:25.606Z,12.31
2018-04-07T13:05:54.006Z,14.60
2018-04-07T13:08:21.321Z,14.23
2018-04-07T13:10:49.749Z,14.10
2018-04-07T13:13:17.070Z,14.64
2018-04-07T13:15:45.603Z,13.85
2018-04-07T13:18:12.938Z,13.28
2018-04-07T13:20:41.583Z,15.08
2018-04-07T13:23:08.950Z,14.38
2018-04-07T13:25:37.383Z,14.49
2018-04-07T13:28:05.514Z,14.94
2018-04-07T13:30:34.014Z,15.31
2018-04-07T13:33:01.332Z,17.23
2018-04-07T13:35:30.185Z,14.82
2018-04-07T13:37:57.511Z,14.76
2018-04-07T13:40:25.951Z,15.37
2018-04-07T13:42:53.458Z,15.46
2018-04-07T13:45:21.894Z,16.07
2018-04-07T13:47:49.303Z,16.19
2018-04-07T13:50:17.864Z,15.75
2018-04-07T13:52:46.643Z,16.10
2018-04-07T13:55:14.021Z,16.51
2018-04-07T13:57:42.389Z,16.21
2018-04-07T14:00:09.786Z,16.42
2018-04-07T14:02:38.246Z,17.84
2018-04-07T14:05:05.671Z,17.10
2018-04-07T14:07:34.081Z,17.29
2018-04-07T14:10:01.421Z,16.41
2018-04-07T14:12:29.841Z,16.91
2018-04-07T14:14:57.186Z,16.88
2018-04-07T14:17:25.607Z,16.83
2018-04-07T14:19:52.916Z,16.53
2018-04-07T14:22:21.343Z,16.97
2018-04-07T14:24:48.699Z,17.31
2018-04-07T14:27:17.129Z,16.67
2018-04-07T14:29:44.458Z,17.50
2018-04-07T14:32:12.881Z,17.70
2018-04-07T14:34:40.314Z,17.74
2018-04-07T14:37:08.744Z,18.06
2018-04-07T14:39:36.060Z,17.32
2018-04-07T14:42:04.501Z,17.57
2018-04-07T14:44:31.876Z,17.89
2018-04-07T14:47:00.304Z,18.46
2018-04-07T14:49:27.666Z,18.11
2018-04-07T14:51:56.089Z,19.06
2018-04-07T14:54:23.445Z,18.69
2018-04-07T14:56:51.823Z,18.39
2018-04-07T14:59:19.922Z,19.05
2018-04-07T15:01:48.345Z,20.39
2018-04-07T15:04:15.682Z,18.49
2018-04-07T15:06:42.980Z,18.56
2018-04-07T15:09:11.068Z,19.62
2018-04-07T15:11:38.368Z,19.59
2018-04-07T15:14:05.698Z,18.53
2018-04-07T15:16:33.036Z,18.98
2018-04-07T15:19:01.471Z,18.93
2018-04-07T15:21:28.769Z,18.79
2018-04-07T15:23:56.126Z,19.38
2018-04-07T15:26:23.470Z,18.95
2018-04-07T15:28:50.783Z,19.21
2018-04-07T15:31:18.166Z,19.38
2018-04-07T15:33:45.470Z,19.73
2018-04-07T15:36:12.778Z,19.43
2018-04-07T15:38:40.125Z,20.07
2018-04-07T15:41:07.654Z,20.21
2018-04-07T15:43:34.990Z,20.41
2018-04-07T15:46:02.366Z,19.96
2018-04-07T15:48:29.732Z,19.76
2018-04-07T15:50:57.039Z,20.49
2018-04-07T15:53:24.342Z,20.27
2018-04-07T15:55:51.691Z,19.68
2018-04-07T15:58:19.044Z,19.53
2018-04-07T16:00:47.422Z,19.78
2018-04-07T16:03:14.754Z,19.57
2018-04-07T16:05:42.878Z,20.53
2018-04-07T16:08:10.259Z,20.77
2018-04-07T16:10:37.619Z,21.39
2018-04-07T16:13:04.964Z,20.59
2018-04-07T16:15:32.264Z,20.31
2018-04-07T16:17:59.613Z,20.76
2018-04-07T16:20:27.025Z,21.08
2018-04-07T16:22:54.349Z,20.88
2018-04-07T16:25:21.766Z,20.52
2018-04-07T16:27:49.113Z,20.60
2018-04-07T16:30:16.497Z,20.48
2018-04-07T16:32:43.905Z,20.62
2018-04-07T16:35:11.247Z,21.04
2018-04-07T16:37:38.598Z,21.35
2018-04-07T16:40:05.959Z,21.38
2018-04-07T16:42:33.285Z,21.00
2018-04-07T16:45:00.634Z,21.21
2018-04-07T16:47:28.712Z,21.54
2018-04-07T16:49:56.046Z,21.22
2018-04-07T16:52:23.429Z,21.16
2018-04-07T16:54:50.739Z,21.37
2018-04-07T16:57:18.067Z,21.66
2018-04-07T16:59:45.368Z,21.80
2018-04-07T17:02:13.552Z,21.93
2018-04-07T17:04:41.597Z,21.82
2018-04-07T17:07:09.638Z,22.27
2018-04-07T17:09:36.990Z,22.69
2018-04-07T17:12:04.334Z,22.99
2018-04-07T17:14:31.725Z,23.10
2018-04-07T17:16:59.129Z,23.06
2018-04-07T17:19:26.488Z,22.97
2018-04-07T17:21:53.793Z,22.99
2018-04-07T17:24:21.148Z,22.94
2018-04-07T17:26:49.235Z,23.05
2018-04-07T17:29:17.294Z,22.88
2018-04-07T17:31:44.623Z,23.05
2018-04-07T17:34:12.910Z,23.44
2018-04-07T17:36:40.202Z,23.56
2018-04-07T17:39:07.563Z,23.61
2018-04-07T17:41:35.343Z,23.88
2018-04-07T17:44:02.695Z,24.21
2018-04-07T17:46:30.051Z,24.70
2018-04-07T17:49:05.991Z,24.90
2018-04-07T17:51:25.437Z,25.04
2018-04-07T17:53:52.778Z,24.95
2018-04-07T17:56:20.135Z,25.15
2018-04-07T17:58:47.489Z,25.11
2018-04-07T18:01:14.869Z,25.60
2018-04-07T18:03:42.180Z,25.70
2018-04-07T18:06:09.528Z,25.78
2018-04-07T18:08:36.904Z,25.78
2018-04-07T18:11:05.080Z,26.21
2018-04-07T18:13:32.395Z,25.63
2018-04-07T18:15:59.774Z,25.58
2018-04-07T18:18:27.098Z,25.70
2018-04-07T18:20:54.466Z,25.88
2018-04-07T18:23:22.566Z,26.01
2018-04-07T18:25:49.900Z,25.50
2018-04-07T18:28:17.225Z,25.90
2018-04-07T18:30:44.534Z,25.78
2018-04-07T18:33:11.968Z,26.60
2018-04-07T18:35:40.057Z,26.17
2018-04-07T18:38:08.323Z,26.65
2018-04-07T18:40:35.684Z,26.56
2018-04-07T18:43:03.023Z,26.62
2018-04-07T18:45:31.165Z,27.04
2018-04-07T18:47:58.517Z,27.46
2018-04-07T18:50:25.844Z,27.58
2018-04-07T18:52:53.243Z,27.85
2018-04-07T18:55:20.838Z,28.11
2018-04-07T18:57:48.891Z,28.31
2018-04-07T19:00:16.221Z,28.72
2018-04-07T19:02:43.577Z,28.81
2018-04-07T19:05:10.899Z,28.87
2018-04-07T19:07:38.328Z,28.82
2018-04-07T19:10:05.705Z,29.00
2018-04-07T19:12:33.062Z,29.11
2018-04-07T19:15:00.475Z,29.43
2018-04-07T19:17:27.847Z,29.63
2018-04-07T19:19:55.191Z,29.51
2018-04-07T19:22:22.530Z,29.73
2018-04-07T19:24:50.028Z,29.80
2018-04-07T19:27:18.087Z,29.82
2018-04-07T19:29:46.190Z,30.12
2018-04-07T19:32:13.526Z,30.06
2018-04-07T19:34:40.877Z,30.20
2018-04-07T19:37:08.977Z,30.46
2018-04-07T19:39:36.308Z,30.45
2018-04-07T19:42:03.682Z,30.44
2018-04-07T19:44:31.015Z,30.68
2018-04-07T19:46:59.104Z,31.00
2018-04-07T19:49:26.411Z,31.25
2018-04-07T19:51:53.758Z,31.50
2018-04-07T19:54:21.071Z,31.63
2018-04-07T19:56:48.476Z,31.68
2018-04-07T19:59:15.839Z,31.76
2018-04-07T20:01:43.211Z,31.85
2018-04-07T20:04:10.578Z,32.04
2018-04-07T20:06:37.994Z,32.34
2018-04-07T20:09:05.371Z,32.52
2018-04-07T20:11:32.731Z,32.86
2018-04-07T20:14:00.829Z,33.01
2018-04-07T20:16:28.174Z,33.38
2018-04-07T20:18:55.565Z,33.85
2018-04-07T20:21:22.904Z,34.05
2018-04-07T20:23:50.257Z,34.41
2018-04-07T20:26:17.591Z,34.70
2018-04-07T20:28:44.962Z,34.98
2018-04-07T20:31:12.351Z,35.23
2018-04-07T20:33:39.685Z,35.54
2018-04-07T20:36:06.994Z,35.71
2018-04-07T20:38:37.806Z,36.01
2018-04-07T20:41:05.217Z,36.05
2018-04-07T20:43:36.147Z,36.13
2018-04-07T20:46:03.497Z,36.16
2018-04-07T20:48:33.927Z,36.35
2018-04-07T20:51:01.309Z,36.54
2018-04-07T20:53:39.349Z,36.90
2018-04-07T20:56:07.393Z,36.91
2018-04-07T20:58:37.920Z,36.76
2018-04-07T21:01:06.301Z,36.85
2018-04-07T21:03:34.793Z,36.85
2018-04-07T21:06:02.214Z,36.87
2018-04-07T21:08:32.286Z,36.97
2018-04-07T21:10:59.649Z,37.04
2018-04-07T21:13:30.222Z,37.15
2018-04-07T21:15:58.632Z,37.34
2018-04-07T21:18:27.116Z,37.23
2018-04-07T21:20:55.205Z,37.10
2018-04-07T21:23:25.581Z,37.23
2018-04-07T21:25:54.042Z,37.18
2018-04-07T21:28:22.455Z,37.30
2018-04-07T21:30:49.848Z,37.47
2018-04-07T21:33:20.061Z,37.74
2018-04-07T21:35:48.519Z,37.93
2018-04-07T21:38:20.553Z,38.14
2018-04-07T21:40:51.056Z,38.47
2018-04-07T21:43:19.502Z,38.71
2018-04-07T21:45:46.858Z,39.00
2018-04-07T21:48:19.396Z,38.95
2018-04-07T21:50:47.829Z,39.21
2018-04-07T21:53:16.275Z,39.46
2018-04-07T21:55:46.678Z,39.71
2018-04-07T21:58:16.653Z,39.92
2018-04-07T22:00:45.030Z,39.96
2018-04-07T22:03:13.476Z,40.02
2018-04-07T22:05:41.858Z,40.03
2018-04-07T22:08:10.513Z,40.12
2018-04-07T22:10:41.097Z,40.09
2018-04-07T22:13:09.733Z,39.81
2018-04-07T22:15:39.781Z,39.98
2018-04-07T22:18:08.217Z,40.17
2018-04-07T22:20:36.728Z,40.23
2018-04-07T22:23:07.236Z,40.72
2018-04-07T22:25:35.702Z,40.75
2018-04-07T22:28:03.137Z,40.20
2018-04-07T22:30:33.701Z,40.02
2018-04-07T22:33:03.289Z,39.89
2018-04-07T22:35:30.719Z,40.27
2018-04-07T22:38:01.223Z,40.03
2018-04-07T22:40:28.576Z,40.12
2018-04-07T22:43:00.233Z,40.37
2018-04-07T22:45:27.545Z,40.16
2018-04-07T22:48:00.110Z,40.48
2018-04-07T22:50:27.814Z,40.85
2018-04-07T22:52:58.338Z,40.61
2018-04-07T22:55:26.742Z,41.04
2018-04-07T22:57:54.078Z,40.99
2018-04-07T23:00:28.175Z,41.17
2018-04-07T23:02:56.504Z,41.03
2018-04-07T23:05:24.976Z,41.02
2018-04-07T23:07:55.525Z,41.45
2018-04-07T23:10:26.059Z,41.48
2018-04-07T23:12:56.462Z,41.56
2018-04-07T23:15:24.859Z,41.74
2018-04-07T23:17:53.260Z,41.88
2018-04-07T23:20:21.739Z,41.92
2018-04-07T23:22:50.109Z,41.99
2018-04-07T23:25:18.541Z,41.99
2018-04-07T23:27:45.898Z,42.15
2018-04-07T23:30:19.501Z,42.13
2018-04-07T23:32:48.176Z,42.12
2018-04-07T23:35:18.145Z,42.33
2018-04-07T23:37:46.501Z,42.49
2018-04-07T23:40:14.938Z,42.46
2018-04-07T23:42:43.346Z,42.51
2018-04-07T23:45:13.772Z,42.49
2018-04-07T23:47:46.201Z,42.57
2018-04-07T23:50:14.637Z,42.74
2018-04-07T23:52:43.157Z,42.71
2018-04-07T23:55:11.530Z,42.50
2018-04-07T23:57:39.957Z,42.48
